sensor_id;sensor_type;location;lat;lon;timestamp;pressure;altitude;pressure_sealevel;temperature;humidity
52927;BME280;40783;49.710;8.842;2023-06-24T00:00:11;99917.09;;;18.87;72.53
52927;BME280;40783;49.710;8.842;2023-06-24T00:02:37;99918.53;;;18.82;72.53
52927;BME280;40783;49.710;8.842;2023-06-24T00:05:03;99915.28;;;18.72;72.68
52927;BME280;40783;49.710;8.842;2023-06-24T00:07:28;99914.63;;;18.70;72.70
52927;BME280;40783;49.710;8.842;2023-06-24T00:09:54;99920.69;;;18.72;72.54
52927;BME280;40783;49.710;8.842;2023-06-24T00:12:22;99922.38;;;18.73;72.78
52927;BME280;40783;49.710;8.842;2023-06-24T00:14:49;99919.22;;;18.69;72.97
52927;BME280;40783;49.710;8.842;2023-06-24T00:17:15;99919.78;;;18.65;72.86
52927;BME280;40783;49.710;8.842;2023-06-24T00:19:41;99913.06;;;18.61;73.05
52927;BME280;40783;49.710;8.842;2023-06-24T00:22:08;99907.59;;;18.54;73.47
52927;BME280;40783;49.710;8.842;2023-06-24T00:24:34;99917.63;;;18.53;73.53
52927;BME280;40783;49.710;8.842;2023-06-24T00:27:01;99922.63;;;18.57;73.54
52927;BME280;40783;49.710;8.842;2023-06-24T00:29:29;99914.25;;;18.51;73.36
52927;BME280;40783;49.710;8.842;2023-06-24T00:31:54;99920.06;;;18.48;73.44
52927;BME280;40783;49.710;8.842;2023-06-24T00:34:19;99925.19;;;18.43;73.54
52927;BME280;40783;49.710;8.842;2023-06-24T00:36:45;99917.47;;;18.40;73.42
52927;BME280;40783;49.710;8.842;2023-06-24T00:39:12;99922.88;;;18.40;73.77
52927;BME280;40783;49.710;8.842;2023-06-24T00:41:40;99915.78;;;18.39;73.32
52927;BME280;40783;49.710;8.842;2023-06-24T00:44:05;99916.97;;;18.36;73.30
52927;BME280;40783;49.710;8.842;2023-06-24T00:46:34;99919.91;;;18.35;73.68
52927;BME280;40783;49.710;8.842;2023-06-24T00:49:02;99921.94;;;18.33;73.45
52927;BME280;40783;49.710;8.842;2023-06-24T00:51:29;99924.84;;;18.31;73.55
52927;BME280;40783;49.710;8.842;2023-06-24T00:53:59;99924.38;;;18.28;73.57
52927;BME280;40783;49.710;8.842;2023-06-24T00:56:25;99926.44;;;18.26;73.70
52927;BME280;40783;49.710;8.842;2023-06-24T00:58:51;99916.00;;;18.22;74.04
52927;BME280;40783;49.710;8.842;2023-06-24T01:01:17;99920.47;;;18.15;74.14
52927;BME280;40783;49.710;8.842;2023-06-24T01:03:42;99922.16;;;18.16;74.09
52927;BME280;40783;49.710;8.842;2023-06-24T01:06:12;99915.44;;;18.12;74.32
52927;BME280;40783;49.710;8.842;2023-06-24T01:08:40;99921.72;;;18.13;74.08
52927;BME280;40783;49.710;8.842;2023-06-24T01:11:08;99932.44;;;18.06;74.32
52927;BME280;40783;49.710;8.842;2023-06-24T01:13:33;99934.50;;;18.04;74.58
52927;BME280;40783;49.710;8.842;2023-06-24T01:16:00;99936.75;;;18.00;74.52
52927;BME280;40783;49.710;8.842;2023-06-24T01:20:56;99938.63;;;18.00;74.56
52927;BME280;40783;49.710;8.842;2023-06-24T01:34:01;99928.78;;;17.84;75.24
52927;BME280;40783;49.710;8.842;2023-06-24T01:36:31;99933.66;;;17.88;74.99
52927;BME280;40783;49.710;8.842;2023-06-24T01:39:01;99934.66;;;17.87;75.27
52927;BME280;40783;49.710;8.842;2023-06-24T01:41:34;99936.06;;;17.83;75.04
52927;BME280;40783;49.710;8.842;2023-06-24T01:44:03;99931.19;;;17.78;75.20
52927;BME280;40783;49.710;8.842;2023-06-24T01:46:29;99929.06;;;17.74;75.46
52927;BME280;40783;49.710;8.842;2023-06-24T01:48:55;99931.50;;;17.69;75.61
52927;BME280;40783;49.710;8.842;2023-06-24T01:51:23;99927.09;;;17.68;75.69
52927;BME280;40783;49.710;8.842;2023-06-24T01:53:54;99940.63;;;17.68;75.53
52927;BME280;40783;49.710;8.842;2023-06-24T01:56:22;99930.66;;;17.68;75.55
52927;BME280;40783;49.710;8.842;2023-06-24T01:58:53;99937.91;;;17.68;75.48
52927;BME280;40783;49.710;8.842;2023-06-24T02:01:19;99935.13;;;17.61;75.23
52927;BME280;40783;49.710;8.842;2023-06-24T02:03:44;99939.03;;;17.58;75.48
52927;BME280;40783;49.710;8.842;2023-06-24T02:06:15;99931.28;;;17.55;75.63
52927;BME280;40783;49.710;8.842;2023-06-24T02:08:42;99931.66;;;17.52;76.62
52927;BME280;40783;49.710;8.842;2023-06-24T02:11:11;99934.34;;;17.52;75.87
52927;BME280;40783;49.710;8.842;2023-06-24T02:13:37;99935.13;;;17.46;75.93
52927;BME280;40783;49.710;8.842;2023-06-24T02:16:04;99936.50;;;17.42;76.37
52927;BME280;40783;49.710;8.842;2023-06-24T02:18:37;99923.66;;;17.44;76.61
52927;BME280;40783;49.710;8.842;2023-06-24T02:21:03;99920.66;;;17.39;76.71
52927;BME280;40783;49.710;8.842;2023-06-24T02:23:28;99931.09;;;17.42;76.46
52927;BME280;40783;49.710;8.842;2023-06-24T02:25:54;99929.06;;;17.44;76.54
52927;BME280;40783;49.710;8.842;2023-06-24T02:28:20;99931.09;;;17.42;76.29
52927;BME280;40783;49.710;8.842;2023-06-24T02:30:45;99933.03;;;17.33;76.82
52927;BME280;40783;49.710;8.842;2023-06-24T02:33:11;99939.66;;;17.30;76.74
52927;BME280;40783;49.710;8.842;2023-06-24T02:35:37;99935.63;;;17.26;76.86
52927;BME280;40783;49.710;8.842;2023-06-24T02:38:02;99933.28;;;17.23;77.36
52927;BME280;40783;49.710;8.842;2023-06-24T02:40:30;99931.59;;;17.22;77.23
52927;BME280;40783;49.710;8.842;2023-06-24T02:42:57;99932.56;;;17.29;76.70
52927;BME280;40783;49.710;8.842;2023-06-24T02:45:23;99927.31;;;17.28;77.01
52927;BME280;40783;49.710;8.842;2023-06-24T02:47:51;99920.44;;;17.25;77.13
52927;BME280;40783;49.710;8.842;2023-06-24T02:50:17;99938.69;;;17.23;77.34
52927;BME280;40783;49.710;8.842;2023-06-24T02:52:43;99930.28;;;17.18;77.67
52927;BME280;40783;49.710;8.842;2023-06-24T02:55:09;99928.63;;;17.17;77.95
52927;BME280;40783;49.710;8.842;2023-06-24T02:57:34;99932.69;;;17.13;78.07
52927;BME280;40783;49.710;8.842;2023-06-24T03:00:03;99928.31;;;17.12;78.01
52927;BME280;40783;49.710;8.842;2023-06-24T03:02:38;99924.66;;;17.04;78.58
52927;BME280;40783;49.710;8.842;2023-06-24T03:05:03;99933.78;;;17.03;78.00
52927;BME280;40783;49.710;8.842;2023-06-24T03:07:32;99926.34;;;17.05;78.36
52927;BME280;40783;49.710;8.842;2023-06-24T03:10:00;99929.69;;;17.08;78.31
52927;BME280;40783;49.710;8.842;2023-06-24T03:12:27;99926.34;;;17.05;78.42
52927;BME280;40783;49.710;8.842;2023-06-24T03:14:53;99930.41;;;17.01;78.67
52927;BME280;40783;49.710;8.842;2023-06-24T03:17:18;99929.09;;;16.97;78.30
52927;BME280;40783;49.710;8.842;2023-06-24T03:19:43;99928.75;;;17.00;78.32
52927;BME280;40783;49.710;8.842;2023-06-24T03:22:08;99923.34;;;17.00;78.58
52927;BME280;40783;49.710;8.842;2023-06-24T03:24:34;99934.50;;;16.97;78.89
52927;BME280;40783;49.710;8.842;2023-06-24T03:26:59;99937.38;;;16.96;78.59
52927;BME280;40783;49.710;8.842;2023-06-24T03:29:24;99938.22;;;16.96;78.95
52927;BME280;40783;49.710;8.842;2023-06-24T03:31:51;99938.59;;;16.93;78.83
52927;BME280;40783;49.710;8.842;2023-06-24T03:34:17;99941.66;;;16.90;79.11
52927;BME280;40783;49.710;8.842;2023-06-24T03:36:44;99932.22;;;16.86;79.68
52927;BME280;40783;49.710;8.842;2023-06-24T03:39:12;99931.84;;;16.89;79.52
52927;BME280;40783;49.710;8.842;2023-06-24T03:41:37;99936.41;;;16.88;79.34
52927;BME280;40783;49.710;8.842;2023-06-24T03:44:04;99939.31;;;16.87;79.65
52927;BME280;40783;49.710;8.842;2023-06-24T03:46:29;99940.31;;;16.86;79.63
52927;BME280;40783;49.710;8.842;2023-06-24T03:48:58;99939.66;;;16.84;79.75
52927;BME280;40783;49.710;8.842;2023-06-24T03:51:23;99952.50;;;16.82;79.33
52927;BME280;40783;49.710;8.842;2023-06-24T03:53:52;99940.03;;;16.81;79.17
52927;BME280;40783;49.710;8.842;2023-06-24T03:56:20;99943.38;;;16.83;79.47
52927;BME280;40783;49.710;8.842;2023-06-24T03:58:45;99937.63;;;16.86;79.06
52927;BME280;40783;49.710;8.842;2023-06-24T04:01:10;99945.06;;;16.84;79.75
52927;BME280;40783;49.710;8.842;2023-06-24T04:03:38;99949.09;;;16.88;79.57
52927;BME280;40783;49.710;8.842;2023-06-24T04:06:03;99947.47;;;16.79;80.69
52927;BME280;40783;49.710;8.842;2023-06-24T04:08:28;99955.50;;;16.87;80.14
52927;BME280;40783;49.710;8.842;2023-06-24T04:10:59;99958.38;;;16.85;80.27
52927;BME280;40783;49.710;8.842;2023-06-24T04:13:31;99953.28;;;16.90;80.25
52927;BME280;40783;49.710;8.842;2023-06-24T04:15:56;99954.78;;;16.93;80.37
52927;BME280;40783;49.710;8.842;2023-06-24T04:18:21;99958.16;;;16.95;80.91
52927;BME280;40783;49.710;8.842;2023-06-24T04:20:47;99956.13;;;16.97;81.22
52927;BME280;40783;49.710;8.842;2023-06-24T04:23:16;99959.84;;;16.96;81.28
52927;BME280;40783;49.710;8.842;2023-06-24T04:25:42;99960.69;;;16.97;81.16
52927;BME280;40783;49.710;8.842;2023-06-24T04:28:09;99956.47;;;16.94;82.61
52927;BME280;40783;49.710;8.842;2023-06-24T04:30:34;99967.63;;;16.91;82.17
52927;BME280;40783;49.710;8.842;2023-06-24T04:33:03;99973.03;;;16.91;81.78
52927;BME280;40783;49.710;8.842;2023-06-24T04:35:28;99963.91;;;16.92;81.83
52927;BME280;40783;49.710;8.842;2023-06-24T04:37:55;99968.25;;;17.01;82.54
52927;BME280;40783;49.710;8.842;2023-06-24T04:40:20;99968.25;;;17.01;83.34
52927;BME280;40783;49.710;8.842;2023-06-24T04:42:45;99974.31;;;17.03;82.61
52927;BME280;40783;49.710;8.842;2023-06-24T04:45:11;99970.88;;;17.10;81.62
52927;BME280;40783;49.710;8.842;2023-06-24T04:47:36;99973.44;;;17.11;83.07
52927;BME280;40783;49.710;8.842;2023-06-24T04:50:01;99967.84;;;17.13;83.34
52927;BME280;40783;49.710;8.842;2023-06-24T04:52:29;99975.22;;;17.19;82.46
52927;BME280;40783;49.710;8.842;2023-06-24T04:54:57;99969.44;;;17.22;85.08
52927;BME280;40783;49.710;8.842;2023-06-24T04:57:31;99975.16;;;17.27;82.37
52927;BME280;40783;49.710;8.842;2023-06-24T05:00:01;99968.38;;;17.31;84.59
52927;BME280;40783;49.710;8.842;2023-06-24T05:02:26;99978.81;;;17.34;82.84
52927;BME280;40783;49.710;8.842;2023-06-24T05:04:52;99975.75;;;17.38;88.28
52927;BME280;40783;49.710;8.842;2023-06-24T05:07:19;99980.78;;;17.41;83.44
52927;BME280;40783;49.710;8.842;2023-06-24T05:09:47;99977.72;;;17.44;83.64
52927;BME280;40783;49.710;8.842;2023-06-24T05:12:13;99980.69;;;17.49;84.95
52927;BME280;40783;49.710;8.842;2023-06-24T05:14:38;99971.19;;;17.53;83.96
52927;BME280;40783;49.710;8.842;2023-06-24T05:17:03;99983.81;;;17.61;83.78
52927;BME280;40783;49.710;8.842;2023-06-24T05:19:31;99985.94;;;17.65;83.21
52927;BME280;40783;49.710;8.842;2023-06-24T05:21:56;99988.78;;;17.72;83.66
52927;BME280;40783;49.710;8.842;2023-06-24T05:24:22;99982.44;;;17.80;85.45
52927;BME280;40783;49.710;8.842;2023-06-24T05:26:50;99992.50;;;17.86;89.84
52927;BME280;40783;49.710;8.842;2023-06-24T05:29:18;99985.06;;;17.88;90.02
52927;BME280;40783;49.710;8.842;2023-06-24T05:31:47;99978.25;;;17.92;89.32
52927;BME280;40783;49.710;8.842;2023-06-24T05:34:13;99983.28;;;17.95;86.22
52927;BME280;40783;49.710;8.842;2023-06-24T05:36:38;99991.31;;;18.04;87.93
52927;BME280;40783;49.710;8.842;2023-06-24T05:39:06;99986.69;;;18.13;90.89
52927;BME280;40783;49.710;8.842;2023-06-24T05:41:32;99985.06;;;18.18;87.76
52927;BME280;40783;49.710;8.842;2023-06-24T05:44:01;99985.63;;;18.29;90.71
52927;BME280;40783;49.710;8.842;2023-06-24T05:46:27;99982.16;;;18.35;89.27
52927;BME280;40783;49.710;8.842;2023-06-24T05:48:52;99983.16;;;18.49;88.49
52927;BME280;40783;49.710;8.842;2023-06-24T05:51:19;99978.09;;;18.61;89.17
52927;BME280;40783;49.710;8.842;2023-06-24T05:53:45;99980.56;;;18.77;89.03
52927;BME280;40783;49.710;8.842;2023-06-24T05:56:12;99985.50;;;18.89;88.47
52927;BME280;40783;49.710;8.842;2023-06-24T05:58:37;99987.09;;;18.98;87.17
52927;BME280;40783;49.710;8.842;2023-06-24T06:01:05;99993.00;;;19.08;88.36
52927;BME280;40783;49.710;8.842;2023-06-24T06:03:33;99987.06;;;19.20;86.29
52927;BME280;40783;49.710;8.842;2023-06-24T06:05:58;99981.38;;;19.36;87.23
52927;BME280;40783;49.710;8.842;2023-06-24T06:08:23;99988.22;;;19.54;86.19
52927;BME280;40783;49.710;8.842;2023-06-24T06:10:53;99993.97;;;19.72;84.69
52927;BME280;40783;49.710;8.842;2023-06-24T06:13:18;99987.22;;;19.90;84.99
52927;BME280;40783;49.710;8.842;2023-06-24T06:15:43;99990.69;;;20.06;82.37
52927;BME280;40783;49.710;8.842;2023-06-24T06:18:11;99987.84;;;20.27;81.85
52927;BME280;40783;49.710;8.842;2023-06-24T06:20:36;99993.34;;;20.41;81.13
52927;BME280;40783;49.710;8.842;2023-06-24T06:23:02;99995.50;;;20.52;81.96
52927;BME280;40783;49.710;8.842;2023-06-24T06:25:27;99990.94;;;20.66;82.48
52927;BME280;40783;49.710;8.842;2023-06-24T06:27:52;99978.00;;;20.75;83.20
52927;BME280;40783;49.710;8.842;2023-06-24T06:30:20;99986.44;;;20.94;82.95
52927;BME280;40783;49.710;8.842;2023-06-24T06:32:45;99982.59;;;20.74;78.59
52927;BME280;40783;49.710;8.842;2023-06-24T06:35:10;99983.09;;;20.98;77.31
52927;BME280;40783;49.710;8.842;2023-06-24T06:37:38;99978.31;;;21.14;80.79
52927;BME280;40783;49.710;8.842;2023-06-24T06:40:03;99979.59;;;21.31;74.41
52927;BME280;40783;49.710;8.842;2023-06-24T06:42:29;99981.66;;;21.49;74.68
52927;BME280;40783;49.710;8.842;2023-06-24T06:44:54;99985.66;;;21.74;72.31
52927;BME280;40783;49.710;8.842;2023-06-24T06:47:23;99975.16;;;21.91;72.71
52927;BME280;40783;49.710;8.842;2023-06-24T06:49:49;99977.63;;;22.06;71.96
52927;BME280;40783;49.710;8.842;2023-06-24T06:52:14;99983.06;;;22.13;72.86
52927;BME280;40783;49.710;8.842;2023-06-24T06:54:39;99982.38;;;22.31;71.26
52927;BME280;40783;49.710;8.842;2023-06-24T06:57:05;99985.06;;;22.37;68.50
52927;BME280;40783;49.710;8.842;2023-06-24T06:59:33;99970.38;;;22.52;69.61
52927;BME280;40783;49.710;8.842;2023-06-24T07:01:58;99971.16;;;22.59;68.36
52927;BME280;40783;49.710;8.842;2023-06-24T07:04:23;99970.50;;;22.71;69.96
52927;BME280;40783;49.710;8.842;2023-06-24T07:06:49;99968.09;;;22.81;65.35
52927;BME280;40783;49.710;8.842;2023-06-24T07:09:14;99967.19;;;22.94;67.54
52927;BME280;40783;49.710;8.842;2023-06-24T07:11:40;99970.94;;;23.00;66.56
52927;BME280;40783;49.710;8.842;2023-06-24T07:14:05;99965.81;;;23.10;67.15
52927;BME280;40783;49.710;8.842;2023-06-24T07:16:30;99965.75;;;23.23;66.42
52927;BME280;40783;49.710;8.842;2023-06-24T07:18:55;99961.53;;;23.21;64.55
52927;BME280;40783;49.710;8.842;2023-06-24T07:21:21;99963.97;;;23.36;63.39
52927;BME280;40783;49.710;8.842;2023-06-24T07:23:47;99971.84;;;23.51;65.27
52927;BME280;40783;49.710;8.842;2023-06-24T07:26:12;99967.59;;;23.55;61.76
52927;BME280;40783;49.710;8.842;2023-06-24T07:28:37;99970.69;;;23.59;62.24
52927;BME280;40783;49.710;8.842;2023-06-24T07:31:02;99969.63;;;23.60;63.30
52927;BME280;40783;49.710;8.842;2023-06-24T07:33:28;99966.31;;;23.58;62.59
52927;BME280;40783;49.710;8.842;2023-06-24T07:35:56;99966.63;;;23.68;61.70
52927;BME280;40783;49.710;8.842;2023-06-24T07:38:21;99975.69;;;23.87;60.40
52927;BME280;40783;49.710;8.842;2023-06-24T07:40:46;99971.59;;;23.96;59.47
52927;BME280;40783;49.710;8.842;2023-06-24T07:43:11;99969.41;;;24.24;62.67
52927;BME280;40783;49.710;8.842;2023-06-24T07:45:37;99968.97;;;24.27;60.19
52927;BME280;40783;49.710;8.842;2023-06-24T07:48:02;99974.50;;;24.20;59.28
52927;BME280;40783;49.710;8.842;2023-06-24T07:50:27;99979.13;;;24.01;58.99
52927;BME280;40783;49.710;8.842;2023-06-24T07:52:53;99978.38;;;24.12;58.68
52927;BME280;40783;49.710;8.842;2023-06-24T07:55:20;99976.56;;;24.25;59.14
52927;BME280;40783;49.710;8.842;2023-06-24T07:57:46;99974.06;;;24.54;58.75
52927;BME280;40783;49.710;8.842;2023-06-24T08:00:11;99970.88;;;24.57;58.10
52927;BME280;40783;49.710;8.842;2023-06-24T08:02:37;99976.38;;;24.38;59.26
52927;BME280;40783;49.710;8.842;2023-06-24T08:05:04;99969.88;;;24.02;59.85
52927;BME280;40783;49.710;8.842;2023-06-24T08:07:32;99967.25;;;23.89;58.38
52927;BME280;40783;49.710;8.842;2023-06-24T08:09:57;99965.72;;;23.74;61.50
52927;BME280;40783;49.710;8.842;2023-06-24T08:12:24;99977.78;;;23.41;63.00
52927;BME280;40783;49.710;8.842;2023-06-24T08:14:49;99973.94;;;23.23;62.13
52927;BME280;40783;49.710;8.842;2023-06-24T08:17:15;99979.00;;;23.45;61.02
52927;BME280;40783;49.710;8.842;2023-06-24T08:19:44;99977.31;;;23.44;59.13
52927;BME280;40783;49.710;8.842;2023-06-24T08:22:12;99981.16;;;23.62;58.42
52927;BME280;40783;49.710;8.842;2023-06-24T08:24:37;99971.75;;;23.58;57.54
52927;BME280;40783;49.710;8.842;2023-06-24T08:27:04;99970.69;;;23.59;57.31
52927;BME280;40783;49.710;8.842;2023-06-24T08:29:30;99964.34;;;23.65;57.29
52927;BME280;40783;49.710;8.842;2023-06-24T08:31:57;99967.84;;;23.72;56.31
52927;BME280;40783;49.710;8.842;2023-06-24T08:34:22;99965.13;;;23.72;55.05
52927;BME280;40783;49.710;8.842;2023-06-24T08:36:47;99963.59;;;23.76;54.70
52927;BME280;40783;49.710;8.842;2023-06-24T08:39:13;99956.47;;;23.75;54.87
52927;BME280;40783;49.710;8.842;2023-06-24T08:41:40;99967.25;;;23.89;57.29
52927;BME280;40783;49.710;8.842;2023-06-24T08:44:05;99957.69;;;23.79;54.52
52927;BME280;40783;49.710;8.842;2023-06-24T08:46:31;99961.63;;;23.65;54.73
52927;BME280;40783;49.710;8.842;2023-06-24T08:49:31;99967.28;;;23.63;54.24
52927;BME280;40783;49.710;8.842;2023-06-24T08:52:11;99968.63;;;23.98;54.31
52927;BME280;40783;49.710;8.842;2023-06-24T08:54:38;99962.78;;;23.94;53.81
52927;BME280;40783;49.710;8.842;2023-06-24T08:57:05;99962.13;;;23.99;54.99
52927;BME280;40783;49.710;8.842;2023-06-24T08:59:36;99957.88;;;24.03;54.20
52927;BME280;40783;49.710;8.842;2023-06-24T09:02:04;99960.88;;;23.95;54.95
52927;BME280;40783;49.710;8.842;2023-06-24T09:04:29;99961.63;;;24.09;54.49
52927;BME280;40783;49.710;8.842;2023-06-24T09:06:57;99967.44;;;24.12;54.79
52927;BME280;40783;49.710;8.842;2023-06-24T09:09:23;99966.06;;;24.03;54.74
52927;BME280;40783;49.710;8.842;2023-06-24T09:11:54;99961.47;;;24.04;52.89
52927;BME280;40783;49.710;8.842;2023-06-24T09:14:22;99947.25;;;24.13;52.70
52927;BME280;40783;49.710;8.842;2023-06-24T09:16:51;99943.09;;;24.11;51.92
52927;BME280;40783;49.710;8.842;2023-06-24T09:19:19;99949.69;;;24.22;53.62
52927;BME280;40783;49.710;8.842;2023-06-24T09:21:47;99945.13;;;24.15;50.82
52927;BME280;40783;49.710;8.842;2023-06-24T09:24:16;99939.88;;;24.14;51.08
52927;BME280;40783;49.710;8.842;2023-06-24T09:26:42;99938.28;;;24.25;51.11
52927;BME280;40783;49.710;8.842;2023-06-24T09:29:08;99943.00;;;24.18;52.45
52927;BME280;40783;49.710;8.842;2023-06-24T09:31:33;99941.34;;;24.17;51.49
52927;BME280;40783;49.710;8.842;2023-06-24T09:33:58;99934.03;;;24.29;51.94
52927;BME280;40783;49.710;8.842;2023-06-24T09:36:26;99934.31;;;24.39;51.81
52927;BME280;40783;49.710;8.842;2023-06-24T09:38:51;99931.25;;;24.48;50.61
52927;BME280;40783;49.710;8.842;2023-06-24T09:41:16;99941.72;;;24.51;54.47
52927;BME280;40783;49.710;8.842;2023-06-24T09:43:42;99921.84;;;24.43;54.18
52927;BME280;40783;49.710;8.842;2023-06-24T09:46:08;99923.81;;;24.55;55.11
52927;BME280;40783;49.710;8.842;2023-06-24T09:48:34;99919.63;;;24.52;52.10
52927;BME280;40783;49.710;8.842;2023-06-24T09:51:03;99912.13;;;24.48;51.76
52927;BME280;40783;49.710;8.842;2023-06-24T09:53:34;99911.19;;;24.54;51.20
52927;BME280;40783;49.710;8.842;2023-06-24T09:56:00;99910.50;;;24.58;51.45
52927;BME280;40783;49.710;8.842;2023-06-24T09:58:28;99913.25;;;24.58;50.70
52927;BME280;40783;49.710;8.842;2023-06-24T10:00:56;99909.66;;;24.77;52.32
52927;BME280;40783;49.710;8.842;2023-06-24T10:03:22;99914.03;;;24.78;49.80
52927;BME280;40783;49.710;8.842;2023-06-24T10:05:48;99904.91;;;24.84;49.78
52927;BME280;40783;49.710;8.842;2023-06-24T10:08:13;99895.03;;;24.83;51.20
52927;BME280;40783;49.710;8.842;2023-06-24T10:10:41;99886.31;;;24.74;49.45
52927;BME280;40783;49.710;8.842;2023-06-24T10:13:08;99889.56;;;24.83;50.81
52927;BME280;40783;49.710;8.842;2023-06-24T10:15:36;99887.44;;;24.85;51.81
52927;BME280;40783;49.710;8.842;2023-06-24T10:18:23;99887.00;;;24.69;50.45
52927;BME280;40783;49.710;8.842;2023-06-24T10:20:49;99881.03;;;24.60;50.69
52927;BME280;40783;49.710;8.842;2023-06-24T10:23:14;99877.31;;;24.55;50.73
52927;BME280;40783;49.710;8.842;2023-06-24T10:25:39;99871.78;;;24.62;51.71
52927;BME280;40783;49.710;8.842;2023-06-24T10:28:04;99865.91;;;24.58;51.19
52927;BME280;40783;49.710;8.842;2023-06-24T10:30:32;99877.00;;;24.63;50.77
52927;BME280;40783;49.710;8.842;2023-06-24T10:32:58;99865.91;;;24.58;49.25
52927;BME280;40783;49.710;8.842;2023-06-24T10:37:56;99856.38;;;24.79;47.00
52927;BME280;40783;49.710;8.842;2023-06-24T10:40:34;99855.25;;;24.68;48.01
52927;BME280;40783;49.710;8.842;2023-06-24T10:43:00;99852.69;;;24.73;46.33
52927;BME280;40783;49.710;8.842;2023-06-24T10:45:28;99859.41;;;24.71;48.05
52927;BME280;40783;49.710;8.842;2023-06-24T10:47:55;99850.00;;;24.67;48.34
52927;BME280;40783;49.710;8.842;2023-06-24T10:50:28;99848.94;;;24.68;49.23
52927;BME280;40783;49.710;8.842;2023-06-24T10:52:56;99853.13;;;24.70;48.34
52927;BME280;40783;49.710;8.842;2023-06-24T10:55:23;99852.81;;;24.48;50.77
52927;BME280;40783;49.710;8.842;2023-06-24T10:57:49;99849.50;;;24.58;49.88
52927;BME280;40783;49.710;8.842;2023-06-24T11:00:14;99840.41;;;24.76;50.08
52927;BME280;40783;49.710;8.842;2023-06-24T11:02:40;99846.34;;;24.73;48.63
52927;BME280;40783;49.710;8.842;2023-06-24T11:05:08;99845.53;;;24.72;46.97
52927;BME280;40783;49.710;8.842;2023-06-24T11:07:37;99837.72;;;24.88;48.33
52927;BME280;40783;49.710;8.842;2023-06-24T11:12:30;99834.84;;;24.83;45.83
52927;BME280;40783;49.710;8.842;2023-06-24T11:15:00;99820.81;;;24.91;44.92
52927;BME280;40783;49.710;8.842;2023-06-24T11:17:26;99822.72;;;25.02;44.16
52927;BME280;40783;49.710;8.842;2023-06-24T11:19:52;99819.50;;;25.06;44.90
52927;BME280;40783;49.710;8.842;2023-06-24T11:22:18;99811.53;;;25.16;44.19
52927;BME280;40783;49.710;8.842;2023-06-24T11:24:43;99817.50;;;25.13;41.99
52927;BME280;40783;49.710;8.842;2023-06-24T11:27:08;99805.34;;;25.09;42.79
52927;BME280;40783;49.710;8.842;2023-06-24T11:29:33;99809.75;;;25.33;43.17
52927;BME280;40783;49.710;8.842;2023-06-24T11:34:27;99801.41;;;25.52;45.00
52927;BME280;40783;49.710;8.842;2023-06-24T11:36:52;99805.22;;;25.39;43.72
52927;BME280;40783;49.710;8.842;2023-06-24T11:39:27;99804.28;;;25.33;42.82
52927;BME280;40783;49.710;8.842;2023-06-24T11:41:53;99803.44;;;24.97;45.22
52927;BME280;40783;49.710;8.842;2023-06-24T11:44:23;99812.63;;;25.03;43.82
52927;BME280;40783;49.710;8.842;2023-06-24T11:46:48;99800.59;;;25.16;43.44
52927;BME280;40783;49.710;8.842;2023-06-24T11:49:14;99797.94;;;25.33;44.47
52927;BME280;40783;49.710;8.842;2023-06-24T11:51:45;99797.00;;;25.51;43.49
52927;BME280;40783;49.710;8.842;2023-06-24T11:54:13;99794.97;;;25.58;43.14
52927;BME280;40783;49.710;8.842;2023-06-24T11:56:42;99791.25;;;25.65;40.13
52927;BME280;40783;49.710;8.842;2023-06-24T11:59:28;99796.94;;;25.75;40.07
52927;BME280;40783;49.710;8.842;2023-06-24T12:01:55;99795.75;;;25.71;41.51
52927;BME280;40783;49.710;8.842;2023-06-24T12:04:29;99793.63;;;25.73;40.81
52927;BME280;40783;49.710;8.842;2023-06-24T12:06:54;99787.72;;;25.52;40.88
52927;BME280;40783;49.710;8.842;2023-06-24T12:09:19;99784.84;;;25.47;40.07
52927;BME280;40783;49.710;8.842;2023-06-24T12:11:45;99783.97;;;25.70;41.21
52927;BME280;40783;49.710;8.842;2023-06-24T12:14:10;99785.63;;;25.71;41.21
52927;BME280;40783;49.710;8.842;2023-06-24T12:16:35;99783.84;;;25.77;41.53
52927;BME280;40783;49.710;8.842;2023-06-24T12:19:00;99780.03;;;25.78;43.20
52927;BME280;40783;49.710;8.842;2023-06-24T12:21:28;99778.34;;;25.77;42.72
52927;BME280;40783;49.710;8.842;2023-06-24T12:23:53;99774.53;;;25.78;42.10
52927;BME280;40783;49.710;8.842;2023-06-24T12:26:18;99780.50;;;25.75;42.93
52927;BME280;40783;49.710;8.842;2023-06-24T12:28:44;99782.66;;;25.73;42.50
52927;BME280;40783;49.710;8.842;2023-06-24T12:31:09;99780.50;;;25.75;41.79
52927;BME280;40783;49.710;8.842;2023-06-24T12:33:34;99767.41;;;25.77;41.30
52927;BME280;40783;49.710;8.842;2023-06-24T12:36:02;99769.28;;;25.88;42.81
52927;BME280;40783;49.710;8.842;2023-06-24T12:38:27;99765.47;;;25.89;43.64
52927;BME280;40783;49.710;8.842;2023-06-24T12:40:52;99765.03;;;25.98;41.06
52927;BME280;40783;49.710;8.842;2023-06-24T12:43:18;99753.00;;;25.99;42.48
52927;BME280;40783;49.710;8.842;2023-06-24T12:45:43;99756.31;;;26.01;42.46
52927;BME280;40783;49.710;8.842;2023-06-24T12:48:12;99765.03;;;25.98;41.46
52927;BME280;40783;49.710;8.842;2023-06-24T12:50:38;99753.31;;;25.85;40.41
52927;BME280;40783;49.710;8.842;2023-06-24T12:53:07;99759.78;;;25.79;41.22
52927;BME280;40783;49.710;8.842;2023-06-24T12:55:32;99745.97;;;25.74;41.31
52927;BME280;40783;49.710;8.842;2023-06-24T12:57:58;99736.88;;;25.85;42.34
52927;BME280;40783;49.710;8.842;2023-06-24T13:00:23;99733.63;;;25.59;41.86
52927;BME280;40783;49.710;8.842;2023-06-24T13:02:49;99743.94;;;25.81;41.74
52927;BME280;40783;49.710;8.842;2023-06-24T13:05:14;99736.78;;;25.80;40.51
52927;BME280;40783;49.710;8.842;2023-06-24T13:07:40;99737.56;;;25.92;41.97
52927;BME280;40783;49.710;8.842;2023-06-24T13:10:05;99734.03;;;25.80;41.72
52927;BME280;40783;49.710;8.842;2023-06-24T13:12:31;99733.56;;;25.83;40.62
52927;BME280;40783;49.710;8.842;2023-06-24T13:14:59;99719.97;;;25.88;40.93
52927;BME280;40783;49.710;8.842;2023-06-24T13:17:24;99727.34;;;26.05;39.14